Time;durP1;ratioP1;P1;durP2;ratioP2;P2;SDS_P1;SDS_P2;PMS_P1;PMS_P2;Temp;Humidity;BMP_temperature;BMP_pressure;BME280_temperature;BME280_humidity;BME280_pressure;Samples;Min_cycle;Max_cycle;Signal;HPM_P1;HPM_P2
2021/11/04 00:01:31;;;;;;;102.50;51.83;;;8.30;98.00;;;;;;4882503;29;20052;-80
2021/11/04 00:03:56;;;;;;;141.33;76.57;;;8.20;98.00;;;;;;4897803;29;20135;-79
2021/11/04 00:06:22;;;;;;;122.50;62.80;;;8.30;98.10;;;;;;4881986;29;20072;-78
2021/11/04 00:08:48;;;;;;;114.70;60.63;;;8.30;98.10;;;;;;4897486;29;20036;-79
2021/11/04 00:11:14;;;;;;;121.87;63.43;;;8.30;98.10;;;;;;4898050;29;20135;-78
2021/11/04 00:13:40;;;;;;;131.30;61.83;;;8.30;98.20;;;;;;4881676;29;20037;-79
2021/11/04 00:16:09;;;;;;;220.47;87.67;;;8.40;98.10;;;;;;4897327;29;20037;-79
2021/11/04 00:18:35;;;;;;;187.30;91.80;;;8.30;98.10;;;;;;4882921;29;20033;-79
2021/11/04 00:21:01;;;;;;;137.47;62.97;;;8.20;98.10;;;;;;4897445;29;20039;-79
2021/11/04 00:23:27;;;;;;;135.83;58.90;;;8.20;98.10;;;;;;4897647;29;20473;-79
2021/11/04 00:25:53;;;;;;;127.33;58.37;;;8.20;98.20;;;;;;4882008;29;20037;-79
2021/11/04 00:28:19;;;;;;;137.47;59.97;;;8.10;98.20;;;;;;4881705;29;20037;-79
2021/11/04 00:30:45;;;;;;;116.60;54.27;;;8.20;98.30;;;;;;4898447;29;20145;-79
2021/11/04 00:33:11;;;;;;;127.27;49.70;;;8.20;98.30;;;;;;4898977;29;20048;-79
2021/11/04 00:35:37;;;;;;;94.20;47.80;;;8.20;98.20;;;;;;4897153;29;20041;-78
2021/11/04 00:38:04;;;;;;;103.93;46.70;;;8.10;98.10;;;;;;4882100;29;20047;-80
2021/11/04 00:40:30;;;;;;;87.77;48.97;;;8.10;98.10;;;;;;4897913;29;20041;-79
2021/11/04 00:42:56;;;;;;;95.20;46.33;;;8.00;98.20;;;;;;4897443;29;20052;-80
2021/11/04 00:45:22;;;;;;;152.20;46.10;;;8.00;98.30;;;;;;4897836;29;20037;-78
2021/11/04 00:47:49;;;;;;;92.77;44.07;;;8.00;98.30;;;;;;4883535;29;20033;-80
2021/11/04 00:50:15;;;;;;;72.87;40.83;;;8.10;98.40;;;;;;4901603;29;20033;-80
2021/11/04 00:52:40;;;;;;;75.23;43.40;;;8.00;98.30;;;;;;4885306;29;20132;-79
2021/11/04 00:55:08;;;;;;;82.93;42.43;;;8.00;98.30;;;;;;4884792;29;20075;-79
2021/11/04 00:57:34;;;;;;;75.57;40.87;;;8.00;98.40;;;;;;4901797;29;20496;-78
2021/11/04 01:00:00;;;;;;;101.53;42.97;;;8.00;98.60;;;;;;4900645;29;20128;-79
2021/11/04 01:02:26;;;;;;;87.13;42.30;;;8.00;98.40;;;;;;4900410;29;20529;-77
2021/11/04 01:04:52;;;;;;;76.30;41.50;;;8.00;98.60;;;;;;4901679;29;20084;-79
2021/11/04 01:07:18;;;;;;;78.40;42.90;;;7.90;98.40;;;;;;4900524;29;20060;-81
2021/11/04 01:09:44;;;;;;;93.47;42.40;;;7.90;98.40;;;;;;4901690;29;20044;-80
2021/11/04 01:12:10;;;;;;;82.67;43.20;;;7.90;98.40;;;;;;4901662;29;20056;-79
2021/11/04 01:14:36;;;;;;;87.37;44.77;;;7.90;98.40;;;;;;4900095;29;20474;-79
2021/11/04 01:17:02;;;;;;;87.53;43.57;;;7.90;98.60;;;;;;4900380;29;20036;-81
2021/11/04 01:19:28;;;;;;;100.60;44.63;;;8.00;98.60;;;;;;4884548;29;20037;-78
2021/11/04 01:21:53;;;;;;;92.23;46.00;;;8.00;98.50;;;;;;4884160;29;20055;-80
2021/11/04 01:24:19;;;;;;;114.30;48.27;;;8.00;98.50;;;;;;4884437;29;20040;-80
2021/11/04 01:26:45;;;;;;;88.53;46.27;;;8.00;98.60;;;;;;4884285;29;20036;-79
2021/11/04 01:29:10;;;;;;;93.43;45.10;;;7.90;98.60;;;;;;4884517;29;20041;-79
2021/11/04 01:31:36;;;;;;;90.73;49.10;;;7.90;98.60;;;;;;4899617;29;20486;-80
2021/11/04 01:34:02;;;;;;;87.57;47.17;;;8.10;98.80;;;;;;4883582;29;20454;-79
2021/11/04 01:36:28;;;;;;;91.23;46.77;;;8.10;98.70;;;;;;4899226;29;20039;-79
2021/11/04 01:38:53;;;;;;;86.80;45.63;;;8.10;98.70;;;;;;4898968;29;20049;-79
2021/11/04 01:41:19;;;;;;;87.27;45.00;;;8.10;98.60;;;;;;4883371;29;20116;-78
2021/11/04 01:43:45;;;;;;;87.53;44.77;;;8.20;98.60;;;;;;4899321;29;20041;-79
2021/11/04 01:46:12;;;;;;;81.60;43.53;;;8.10;98.50;;;;;;4883991;29;20496;-79
2021/11/04 01:48:39;;;;;;;81.77;43.67;;;8.10;98.60;;;;;;4900278;29;20039;-78
2021/11/04 01:51:05;;;;;;;78.83;42.90;;;8.10;98.60;;;;;;4899807;29;20100;-79
2021/11/04 01:53:30;;;;;;;74.50;42.97;;;8.00;98.50;;;;;;4899218;29;20045;-79
2021/11/04 01:55:56;;;;;;;89.03;45.13;;;8.00;98.50;;;;;;4883605;29;20064;-79
2021/11/04 01:58:22;;;;;;;81.63;41.50;;;8.00;98.50;;;;;;4883071;29;20044;-79
2021/11/04 02:00:48;;;;;;;85.40;42.97;;;8.00;98.50;;;;;;4900017;29;20040;-79
2021/11/04 02:03:38;;;;;;;88.33;43.93;;;8.00;98.50;;;;;;4898693;29;20053;-79
2021/11/04 02:06:13;;;;;;;86.40;43.80;;;8.00;98.40;;;;;;4900072;29;20056;-78
2021/11/04 02:09:09;;;;;;;89.47;45.63;;;8.00;98.50;;;;;;4900151;29;20036;-80
2021/11/04 02:11:42;;;;;;;91.67;44.67;;;8.00;98.50;;;;;;4899566;29;20036;-80
2021/11/04 02:14:16;;;;;;;85.27;44.67;;;8.00;98.50;;;;;;4898481;29;20093;-77
2021/11/04 02:16:43;;;;;;;84.47;44.43;;;8.00;98.50;;;;;;4898616;29;20493;-78
2021/11/04 02:19:20;;;;;;;87.73;43.73;;;8.00;98.40;;;;;;4898309;29;20500;-79
2021/11/04 02:21:59;;;;;;;89.33;44.63;;;8.00;98.50;;;;;;4898340;29;20062;-79
2021/11/04 02:24:37;;;;;;;82.17;41.83;;;8.00;98.50;;;;;;4899053;29;20091;-79
2021/11/04 02:27:06;;;;;;;81.30;43.20;;;8.10;98.50;;;;;;4898485;29;20036;-78
2021/11/04 02:29:32;;;;;;;82.43;43.20;;;8.10;98.50;;;;;;4898206;29;20106;-78
2021/11/04 02:31:59;;;;;;;83.17;43.50;;;8.10;98.40;;;;;;4898206;29;20556;-78
2021/11/04 02:34:27;;;;;;;85.73;43.13;;;8.20;98.50;;;;;;4898133;29;20473;-79
2021/11/04 02:36:55;;;;;;;83.87;42.00;;;8.20;98.40;;;;;;4898081;29;20041;-79
2021/11/04 02:39:21;;;;;;;92.33;44.87;;;8.20;98.40;;;;;;4897886;29;20040;-79
2021/11/04 02:41:47;;;;;;;84.57;44.37;;;8.20;98.30;;;;;;4897884;29;20040;-79
2021/11/04 02:44:13;;;;;;;83.07;42.50;;;8.20;98.20;;;;;;4898119;29;20032;-79
2021/11/04 02:46:40;;;;;;;74.63;39.53;;;8.20;98.20;;;;;;4898102;29;20036;-80
2021/11/04 02:49:06;;;;;;;71.07;37.30;;;8.20;98.20;;;;;;4882762;29;20043;-78
2021/11/04 02:51:35;;;;;;;73.50;38.70;;;8.10;98.10;;;;;;4897735;29;20055;-78
2021/11/04 02:54:01;;;;;;;70.37;37.67;;;8.10;98.00;;;;;;4882593;29;20032;-78
2021/11/04 02:56:59;;;;;;;72.33;36.67;;;8.00;98.00;;;;;;4898130;29;20064;-78
2021/11/04 02:59:26;;;;;;;77.07;39.73;;;8.00;98.00;;;;;;4898277;29;20068;-79
2021/11/04 03:01:58;;;;;;;78.00;40.67;;;8.00;98.00;;;;;;4882156;29;20056;-79
2021/11/04 03:04:24;;;;;;;75.13;37.70;;;8.10;98.10;;;;;;4898537;29;20060;-78
2021/11/04 03:06:50;;;;;;;75.90;39.57;;;8.10;98.00;;;;;;4897281;29;20033;-79
2021/11/04 03:09:18;;;;;;;84.77;41.63;;;8.10;98.00;;;;;;4898700;29;20560;-79
2021/11/04 03:11:44;;;;;;;86.10;42.63;;;8.00;97.90;;;;;;4882390;29;20063;-79
2021/11/04 03:14:10;;;;;;;82.10;41.17;;;8.00;97.80;;;;;;4897172;29;20044;-79
2021/11/04 03:16:41;;;;;;;80.63;41.10;;;8.00;97.90;;;;;;4881696;29;20582;-78
2021/11/04 03:19:12;;;;;;;81.87;41.50;;;8.10;98.10;;;;;;4898427;29;20079;-79
2021/11/04 03:21:41;;;;;;;93.90;43.03;;;8.10;98.00;;;;;;4897058;29;20513;-78
2021/11/04 03:24:08;;;;;;;91.80;43.30;;;8.10;98.00;;;;;;4896742;29;20041;-78
2021/11/04 03:26:38;;;;;;;86.17;43.60;;;8.10;98.00;;;;;;4898597;29;20041;-78
2021/11/04 03:29:07;;;;;;;83.60;41.83;;;8.10;97.90;;;;;;4896840;29;20033;-78
2021/11/04 03:31:36;;;;;;;85.70;42.50;;;8.10;97.80;;;;;;4897387;29;20075;-79
2021/11/04 03:34:04;;;;;;;83.03;41.93;;;8.10;97.90;;;;;;4897697;29;20043;-79
2021/11/04 03:36:31;;;;;;;81.77;40.70;;;8.10;97.90;;;;;;4881554;29;20044;-79
2021/11/04 03:38:57;;;;;;;87.50;42.50;;;8.10;97.90;;;;;;4896862;29;20044;-79
2021/11/04 03:41:23;;;;;;;87.70;43.93;;;8.10;97.80;;;;;;4881407;29;20552;-79
2021/11/04 03:43:50;;;;;;;86.40;42.67;;;8.10;97.80;;;;;;4897637;29;20037;-79
2021/11/04 03:46:16;;;;;;;80.23;40.83;;;8.00;97.90;;;;;;4899613;29;20044;-79
2021/11/04 03:48:43;;;;;;;79.60;41.60;;;8.00;98.00;;;;;;4897607;29;20120;-78
2021/11/04 03:51:10;;;;;;;75.67;40.30;;;8.00;97.90;;;;;;4881709;29;20047;-78
2021/11/04 03:53:37;;;;;;;77.27;38.17;;;8.00;97.90;;;;;;4882482;29;20044;-79
2021/11/04 03:56:04;;;;;;;74.40;37.73;;;7.90;97.80;;;;;;4882182;29;20465;-79
2021/11/04 03:58:31;;;;;;;77.50;38.73;;;7.90;97.80;;;;;;4881926;29;20037;-78
2021/11/04 04:00:58;;;;;;;79.53;39.10;;;7.90;97.80;;;;;;4897565;29;20067;-78
2021/11/04 04:03:24;;;;;;;77.57;38.13;;;7.80;97.80;;;;;;4881696;29;20059;-79
2021/11/04 04:06:04;;;;;;;85.47;40.27;;;7.90;97.80;;;;;;4897391;29;20063;-80
2021/11/04 04:08:36;;;;;;;89.27;42.33;;;7.90;97.90;;;;;;4897188;29;20051;-79
2021/11/04 04:11:04;;;;;;;85.07;41.67;;;7.90;97.90;;;;;;4896705;29;20037;-79
2021/11/04 04:13:31;;;;;;;94.23;43.87;;;7.90;97.90;;;;;;4897444;29;20068;-78
2021/11/04 04:15:57;;;;;;;91.20;42.50;;;7.90;97.90;;;;;;4897557;29;20035;-79
2021/11/04 04:18:23;;;;;;;86.83;42.00;;;7.90;97.80;;;;;;4881797;29;20462;-79
2021/11/04 04:20:51;;;;;;;81.13;40.63;;;7.80;97.80;;;;;;4896945;29;20033;-80
2021/11/04 04:23:18;;;;;;;81.77;38.83;;;7.80;97.80;;;;;;4883409;29;20409;-79
2021/11/04 04:25:45;;;;;;;80.73;37.83;;;7.80;97.80;;;;;;4884889;29;20033;-78
2021/11/04 04:28:11;;;;;;;74.30;36.40;;;7.80;97.80;;;;;;4900283;29;20037;-79
2021/11/04 04:30:37;;;;;;;74.87;35.77;;;7.70;97.80;;;;;;4900521;29;20072;-79
2021/11/04 04:33:02;;;;;;;72.50;35.83;;;7.70;97.90;;;;;;4900467;29;20368;-79
2021/11/04 04:35:28;;;;;;;71.67;34.67;;;7.70;97.80;;;;;;4901503;29;20070;-79
2021/11/04 04:37:54;;;;;;;81.47;37.07;;;7.70;97.90;;;;;;4900252;29;20075;-80
2021/11/04 04:40:20;;;;;;;83.13;38.20;;;7.80;98.30;;;;;;4901736;29;20436;-79
2021/11/04 04:42:46;;;;;;;81.70;36.77;;;7.90;98.60;;;;;;4901352;29;20048;-79
2021/11/04 04:45:15;;;;;;;80.07;36.20;;;8.10;98.70;;;;;;4884681;29;20043;-79
2021/11/04 04:47:41;;;;;;;81.47;37.00;;;8.20;98.70;;;;;;4885257;29;20041;-78
2021/11/04 04:50:07;;;;;;;73.07;37.07;;;8.20;98.30;;;;;;4900119;29;20434;-78
2021/11/04 04:52:33;;;;;;;81.17;38.43;;;8.20;98.20;;;;;;4884783;29;20048;-79
2021/11/04 04:54:59;;;;;;;79.90;37.80;;;8.20;98.30;;;;;;4884505;29;20044;-80
2021/11/04 04:57:24;;;;;;;78.57;36.50;;;8.30;98.40;;;;;;4899762;29;20186;-80
2021/11/04 04:59:51;;;;;;;68.50;34.43;;;8.40;98.40;;;;;;4899853;29;20044;-79
2021/11/04 05:02:16;;;;;;;67.20;33.70;;;8.40;98.00;;;;;;4884845;29;20390;-79
2021/11/04 05:04:42;;;;;;;67.17;34.43;;;8.30;97.80;;;;;;4900069;29;20053;-78
2021/11/04 05:07:08;;;;;;;65.40;33.57;;;8.30;97.80;;;;;;4884921;29;20127;-77
2021/11/04 05:09:33;;;;;;;66.77;34.80;;;8.30;97.70;;;;;;4887636;29;20045;-79
2021/11/04 05:12:00;;;;;;;59.97;32.47;;;8.20;97.40;;;;;;4903411;29;20055;-78
2021/11/04 05:14:26;;;;;;;58.03;31.43;;;8.20;97.50;;;;;;4900689;29;20111;-79
2021/11/04 05:16:52;;;;;;;63.50;32.23;;;8.10;97.40;;;;;;4900023;29;20065;-79
2021/11/04 05:19:18;;;;;;;54.83;30.87;;;8.20;97.50;;;;;;4884742;29;20083;-79
2021/11/04 05:21:44;;;;;;;57.93;31.93;;;8.20;97.40;;;;;;4899820;29;20076;-79
2021/11/04 05:24:09;;;;;;;59.00;32.10;;;8.20;97.30;;;;;;4899359;29;20510;-78
2021/11/04 05:26:36;;;;;;;57.07;31.60;;;8.20;97.40;;;;;;4899339;29;20160;-78
2021/11/04 05:29:03;;;;;;;62.03;33.37;;;8.30;97.50;;;;;;4899493;29;20350;-79
2021/11/04 05:31:29;;;;;;;61.63;32.80;;;8.40;97.40;;;;;;4901091;29;20489;-78
2021/11/04 05:33:55;;;;;;;60.43;32.77;;;8.40;97.30;;;;;;4898677;29;20473;-79
2021/11/04 05:36:21;;;;;;;55.83;31.27;;;8.50;97.10;;;;;;4900211;29;20048;-79
2021/11/04 05:38:49;;;;;;;61.13;33.20;;;8.50;97.10;;;;;;4899602;29;20097;-80
2021/11/04 05:41:14;;;;;;;57.43;31.87;;;8.50;96.90;;;;;;4883584;29;20128;-79
2021/11/04 05:43:40;;;;;;;59.33;32.27;;;8.50;96.90;;;;;;4899274;29;20127;-79
2021/11/04 05:46:06;;;;;;;62.57;33.33;;;8.60;96.80;;;;;;4884074;29;20037;-79
2021/11/04 05:48:32;;;;;;;61.13;33.43;;;8.60;96.70;;;;;;4900483;29;20454;-78
2021/11/04 05:50:57;;;;;;;60.63;33.47;;;8.50;96.60;;;;;;4899570;29;20386;-79
2021/11/04 05:53:23;;;;;;;61.43;34.33;;;8.50;96.60;;;;;;4883580;29;20497;-79
2021/11/04 05:55:53;;;;;;;62.77;34.60;;;8.50;96.60;;;;;;4898778;29;20037;-79
2021/11/04 05:58:19;;;;;;;63.17;34.63;;;8.50;96.70;;;;;;4883373;29;20037;-79
2021/11/04 06:00:45;;;;;;;61.87;34.67;;;8.60;96.60;;;;;;4882874;29;20052;-79
2021/11/04 06:03:12;;;;;;;62.63;34.67;;;8.60;96.60;;;;;;4883367;29;20063;-79
2021/11/04 06:05:39;;;;;;;61.70;34.80;;;8.60;96.40;;;;;;4898267;29;20115;-78
2021/11/04 06:08:05;;;;;;;64.30;34.77;;;8.50;96.40;;;;;;4898359;29;20037;-79
2021/11/04 06:10:31;;;;;;;61.30;34.80;;;8.50;96.30;;;;;;4882810;29;20072;-79
2021/11/04 06:12:57;;;;;;;67.10;35.47;;;8.40;96.50;;;;;;4898363;29;20037;-79
2021/11/04 06:15:22;;;;;;;62.53;34.63;;;8.40;96.80;;;;;;4882936;29;20048;-79
2021/11/04 06:17:48;;;;;;;62.03;34.60;;;8.50;96.70;;;;;;4898352;29;20037;-79
2021/11/04 06:20:14;;;;;;;63.70;34.30;;;8.50;96.60;;;;;;4898752;29;20063;-79
2021/11/04 06:22:40;;;;;;;61.50;33.73;;;8.60;96.60;;;;;;4899306;29;20508;-79
2021/11/04 06:25:06;;;;;;;58.67;32.70;;;8.60;96.70;;;;;;4898814;29;20497;-81
2021/11/04 06:27:33;;;;;;;56.03;32.13;;;8.60;96.60;;;;;;4883735;29;20040;-79
2021/11/04 06:29:59;;;;;;;56.00;32.00;;;8.60;96.50;;;;;;4898398;29;20061;-79
2021/11/04 06:32:24;;;;;;;56.60;32.60;;;8.70;96.50;;;;;;4899551;29;20072;-79
2021/11/04 06:34:50;;;;;;;62.23;32.63;;;8.70;96.40;;;;;;4882912;29;20083;-79
2021/11/04 06:37:16;;;;;;;54.43;31.50;;;8.70;96.20;;;;;;4883048;29;20136;-79
2021/11/04 06:39:42;;;;;;;57.07;31.73;;;8.70;96.40;;;;;;4898808;29;20470;-79
2021/11/04 06:42:07;;;;;;;56.90;32.07;;;8.70;96.20;;;;;;4883216;29;20044;-81
2021/11/04 06:44:33;;;;;;;54.10;31.57;;;8.70;96.10;;;;;;4882646;29;20401;-79
2021/11/04 06:47:01;;;;;;;51.77;30.37;;;8.70;96.10;;;;;;4881963;29;20553;-79
2021/11/04 06:49:32;;;;;;;50.97;30.63;;;8.70;96.10;;;;;;4882451;29;20036;-78
2021/11/04 06:51:58;;;;;;;50.27;29.83;;;8.70;96.10;;;;;;4897835;29;20040;-77
2021/11/04 06:54:25;;;;;;;54.20;31.97;;;8.80;96.00;;;;;;4898491;29;20123;-78
2021/11/04 06:56:52;;;;;;;61.40;31.63;;;8.80;95.90;;;;;;4898999;29;20123;-79
2021/11/04 06:59:23;;;;;;;48.67;30.33;;;8.80;95.70;;;;;;4882289;29;20040;-79
2021/11/04 07:01:57;;;;;;;46.20;28.53;;;8.70;95.70;;;;;;4898249;29;20045;-78
2021/11/04 07:04:36;;;;;;;44.27;27.30;;;8.70;95.70;;;;;;4897229;29;20055;-78
2021/11/04 07:07:13;;;;;;;41.57;27.30;;;8.70;95.70;;;;;;4897980;29;20077;-78
2021/11/04 07:09:41;;;;;;;42.13;26.60;;;8.70;95.60;;;;;;4883619;29;20032;-78
2021/11/04 07:12:12;;;;;;;39.93;25.77;;;8.80;95.50;;;;;;4897782;29;20120;-79
2021/11/04 07:14:40;;;;;;;38.43;26.07;;;8.80;95.50;;;;;;4882727;29;20137;-79
2021/11/04 07:17:08;;;;;;;43.70;26.87;;;8.80;95.50;;;;;;4882215;29;20393;-79
2021/11/04 07:19:34;;;;;;;42.70;27.97;;;8.90;95.60;;;;;;4897145;29;20036;-79
2021/11/04 07:22:00;;;;;;;43.83;28.13;;;8.90;95.30;;;;;;4897673;29;20064;-79
2021/11/04 07:24:47;;;;;;;51.47;29.80;;;8.90;95.10;;;;;;4897992;29;20064;-80
2021/11/04 07:27:32;;;;;;;43.63;28.30;;;8.80;95.20;;;;;;4899543;29;20380;-81
2021/11/04 07:30:04;;;;;;;45.97;27.33;;;8.70;95.30;;;;;;4905574;29;20370;-79
2021/11/04 07:32:31;;;;;;;43.17;28.37;;;8.80;95.30;;;;;;4898478;29;20048;-80
2021/11/04 07:34:57;;;;;;;44.80;28.47;;;8.70;95.10;;;;;;4898841;29;20131;-80
2021/11/04 07:37:32;;;;;;;40.33;26.97;;;8.80;95.30;;;;;;4898792;29;20520;-79
2021/11/04 07:39:59;;;;;;;49.80;29.03;;;8.80;95.50;;;;;;4899637;29;20041;-79
2021/11/04 07:42:25;;;;;;;45.53;28.47;;;8.80;95.20;;;;;;4899643;29;20036;-79
2021/11/04 07:44:51;;;;;;;43.83;28.10;;;8.80;95.30;;;;;;4885299;29;20099;-79
2021/11/04 07:47:16;;;;;;;41.17;28.10;;;8.80;95.30;;;;;;4889729;29;20036;-79
2021/11/04 07:49:42;;;;;;;46.57;29.93;;;8.90;95.40;;;;;;4887705;29;20033;-79
2021/11/04 07:52:08;;;;;;;46.60;29.40;;;9.00;95.30;;;;;;4886586;29;20130;-79
2021/11/04 07:54:35;;;;;;;46.33;29.73;;;8.90;95.20;;;;;;4886864;29;20040;-79
2021/11/04 07:57:02;;;;;;;48.77;29.70;;;9.00;95.10;;;;;;4901983;29;20421;-79
2021/11/04 07:59:30;;;;;;;47.67;30.77;;;9.00;95.00;;;;;;4900727;29;20036;-79
2021/11/04 08:01:59;;;;;;;47.03;29.47;;;9.00;95.00;;;;;;4901050;29;20047;-80
2021/11/04 08:04:26;;;;;;;50.57;31.80;;;9.10;95.00;;;;;;4883965;29;20052;-79
2021/11/04 08:06:52;;;;;;;48.63;32.23;;;9.20;95.00;;;;;;4881811;29;20039;-79
2021/11/04 08:09:19;;;;;;;49.90;33.20;;;9.30;94.90;;;;;;4897522;29;20033;-81
2021/11/04 08:11:44;;;;;;;52.90;34.50;;;9.30;94.80;;;;;;4882185;29;20465;-79
2021/11/04 08:14:10;;;;;;;54.33;34.77;;;9.30;94.50;;;;;;4882525;29;20033;-79
2021/11/04 08:16:36;;;;;;;53.87;34.23;;;9.30;94.50;;;;;;4881585;29;20339;-80
2021/11/04 08:19:02;;;;;;;57.10;36.10;;;9.30;94.50;;;;;;4880640;29;20037;-79
2021/11/04 08:21:27;;;;;;;56.00;36.50;;;9.40;94.50;;;;;;4881073;29;20096;-79
2021/11/04 08:23:53;;;;;;;60.20;37.73;;;9.30;94.40;;;;;;4897270;29;20526;-79
2021/11/04 08:26:19;;;;;;;62.37;39.90;;;9.40;94.50;;;;;;4896065;29;20486;-79
2021/11/04 08:28:45;;;;;;;64.53;41.37;;;9.40;94.50;;;;;;4896517;29;20037;-79
2021/11/04 08:31:11;;;;;;;65.87;40.80;;;9.50;94.60;;;;;;4896257;29;20047;-79
2021/11/04 08:33:37;;;;;;;68.37;43.80;;;9.50;94.30;;;;;;4896492;29;20036;-79
2021/11/04 08:36:03;;;;;;;69.60;41.53;;;9.60;94.50;;;;;;4880612;29;20517;-79
2021/11/04 08:38:29;;;;;;;65.07;41.43;;;9.60;94.20;;;;;;4896233;29;20037;-80
2021/11/04 08:40:55;;;;;;;69.37;44.87;;;9.60;94.20;;;;;;4896693;29;20041;-79
2021/11/04 08:43:21;;;;;;;75.23;46.37;;;9.60;94.20;;;;;;4880584;29;20049;-80
2021/11/04 08:45:46;;;;;;;83.30;51.50;;;9.60;94.20;;;;;;4880764;29;20041;-80
2021/11/04 08:48:14;;;;;;;86.03;48.57;;;9.60;94.40;;;;;;4896741;29;20049;-79
2021/11/04 08:50:40;;;;;;;89.70;53.50;;;9.50;94.40;;;;;;4896006;29;20036;-78
2021/11/04 08:53:07;;;;;;;88.10;54.03;;;9.60;94.80;;;;;;4897172;29;20048;-78
2021/11/04 08:55:32;;;;;;;79.17;48.63;;;9.60;95.10;;;;;;4897080;29;20504;-78
2021/11/04 08:57:58;;;;;;;85.93;51.27;;;9.60;94.80;;;;;;4896311;29;20033;-79
2021/11/04 09:00:24;;;;;;;97.30;56.80;;;9.60;94.80;;;;;;4896326;29;20390;-80
2021/11/04 09:02:49;;;;;;;89.63;55.17;;;9.60;95.00;;;;;;4896291;29;20099;-79
2021/11/04 09:05:15;;;;;;;101.13;57.60;;;9.70;95.10;;;;;;4895785;29;20071;-79
2021/11/04 09:07:43;;;;;;;97.60;57.07;;;9.60;94.90;;;;;;4895991;29;20059;-80
2021/11/04 09:10:09;;;;;;;101.57;60.10;;;9.60;94.90;;;;;;4899170;29;20032;-79
2021/11/04 09:12:37;;;;;;;99.80;56.93;;;9.70;95.00;;;;;;4883612;29;20040;-79
2021/11/04 09:15:04;;;;;;;98.10;56.40;;;9.60;94.70;;;;;;4899264;29;20037;-80
2021/11/04 09:17:30;;;;;;;100.33;58.50;;;9.60;94.70;;;;;;4883526;29;20097;-80
2021/11/04 09:19:56;;;;;;;99.23;57.60;;;9.50;94.70;;;;;;4899245;29;20072;-79
2021/11/04 09:22:21;;;;;;;93.47;51.60;;;9.50;94.70;;;;;;4883647;29;20107;-80
2021/11/04 09:24:47;;;;;;;87.43;51.33;;;9.50;94.60;;;;;;4899240;29;20041;-80
2021/11/04 09:27:13;;;;;;;92.83;53.77;;;9.60;94.70;;;;;;4883754;29;20441;-80
2021/11/04 09:29:40;;;;;;;94.83;54.40;;;9.50;94.60;;;;;;4883598;29;20063;-80
2021/11/04 09:32:08;;;;;;;91.43;54.30;;;9.50;94.70;;;;;;4884207;29;20045;-80
2021/11/04 09:34:34;;;;;;;90.47;52.40;;;9.60;94.80;;;;;;4898783;29;20036;-80
2021/11/04 09:37:02;;;;;;;85.60;51.50;;;9.70;94.80;;;;;;4898904;29;20040;-81
2021/11/04 09:39:27;;;;;;;86.20;48.00;;;9.80;94.60;;;;;;4898699;29;20132;-81
2021/11/04 09:41:54;;;;;;;87.37;52.43;;;9.80;94.50;;;;;;4883337;29;20193;-80
2021/11/04 09:44:20;;;;;;;81.10;47.17;;;9.90;94.60;;;;;;4883002;29;20040;-79
2021/11/04 09:46:46;;;;;;;79.00;44.87;;;10.00;94.30;;;;;;4900063;29;20033;-80
2021/11/04 09:49:12;;;;;;;65.73;39.33;;;10.20;94.50;;;;;;4898640;29;20461;-80
2021/11/04 09:51:39;;;;;;;67.33;40.07;;;10.50;94.10;;;;;;4882773;29;20041;-80
2021/11/04 09:54:05;;;;;;;63.70;41.70;;;10.60;93.40;;;;;;4883582;29;20112;-79
2021/11/04 09:56:31;;;;;;;55.40;36.40;;;10.60;93.20;;;;;;4898331;29;20470;-80
2021/11/04 09:58:57;;;;;;;64.10;40.17;;;10.70;92.90;;;;;;4898674;29;20172;-80
2021/11/04 10:01:25;;;;;;;54.57;35.17;;;10.70;92.80;;;;;;4883337;29;20044;-80
2021/11/04 10:03:57;;;;;;;60.30;39.87;;;10.80;92.50;;;;;;4898323;29;20111;-80
2021/11/04 10:06:31;;;;;;;65.80;40.15;;;10.80;92.60;;;;;;4899389;29;20041;-79
2021/11/04 10:09:00;;;;;;;60.33;38.00;;;10.90;92.60;;;;;;4898309;29;20397;-79
2021/11/04 10:11:35;;;;;;;54.97;35.97;;;11.00;92.40;;;;;;4899579;29;20041;-78
2021/11/04 10:14:07;;;;;;;58.33;38.07;;;11.20;92.40;;;;;;4898353;29;20041;-77
2021/11/04 10:16:34;;;;;;;58.43;36.83;;;11.40;91.90;;;;;;4898365;29;20132;-79
2021/11/04 10:19:05;;;;;;;58.77;37.37;;;11.40;91.10;;;;;;4885248;29;20041;-77
2021/11/04 10:21:34;;;;;;;64.30;41.73;;;11.00;90.10;;;;;;4899232;29;20037;-78
2021/11/04 10:24:01;;;;;;;63.80;41.20;;;10.80;91.00;;;;;;4899914;29;20461;-78
2021/11/04 10:26:31;;;;;;;62.33;40.53;;;10.80;91.70;;;;;;4882507;29;20405;-78
2021/11/04 10:29:06;;;;;;;62.67;41.23;;;10.90;92.00;;;;;;4899463;29;20041;-78
2021/11/04 10:31:41;;;;;;;63.67;41.93;;;10.90;91.90;;;;;;4897871;29;20033;-78
2021/11/04 10:34:25;;;;;;;64.67;43.90;;;10.80;91.90;;;;;;4898644;29;20072;-77
2021/11/04 10:36:51;;;;;;;49.95;35.53;;;10.80;92.20;;;;;;4897996;29;20072;-78
2021/11/04 10:39:17;;;;;;;58.00;40.13;;;10.70;92.10;;;;;;4897843;29;20040;-78
2021/11/04 10:41:46;;;;;;;56.23;38.40;;;10.60;92.00;;;;;;4898542;29;20129;-78
2021/11/04 10:44:16;;;;;;;55.73;38.97;;;10.60;92.10;;;;;;4898187;29;20062;-77
2021/11/04 10:46:43;;;;;;;66.37;45.33;;;10.50;92.10;;;;;;4898569;29;20060;-77
2021/11/04 10:49:09;;;;;;;58.77;41.10;;;10.40;92.50;;;;;;4898085;29;20040;-78
2021/11/04 10:51:35;;;;;;;57.33;41.07;;;10.40;92.50;;;;;;4898842;29;20036;-80
2021/11/04 10:54:10;;;;;;;60.03;40.60;;;10.40;92.70;;;;;;4882201;29;20037;-78
2021/11/04 10:56:42;;;;;;;62.80;44.03;;;10.30;92.70;;;;;;4910372;29;20041;-79
2021/11/04 10:59:16;;;;;;;52.37;37.97;;;10.30;92.90;;;;;;4898820;29;20044;-79
2021/11/04 11:01:54;;;;;;;58.80;41.60;;;10.40;93.10;;;;;;4897468;29;20047;-79
2021/11/04 11:04:33;;;;;;;58.43;40.43;;;10.40;92.90;;;;;;4898324;29;20557;-79
2021/11/04 11:06:59;;;;;;;64.33;43.80;;;10.50;92.90;;;;;;4896819;29;20048;-79
2021/11/04 11:09:29;;;;;;;62.17;43.40;;;10.50;92.90;;;;;;4897515;29;20036;-79
2021/11/04 11:12:05;;;;;;;57.93;39.90;;;10.50;93.00;;;;;;4897211;29;20052;-79
2021/11/04 11:14:36;;;;;;;62.87;43.13;;;10.40;92.70;;;;;;4898573;29;20040;-79
2021/11/04 11:17:03;;;;;;;66.80;42.40;;;10.40;93.00;;;;;;4897285;29;20040;-81
2021/11/04 11:19:30;;;;;;;68.57;42.53;;;10.50;93.30;;;;;;4897044;29;20037;-81
2021/11/04 11:21:57;;;;;;;71.23;43.67;;;10.50;93.30;;;;;;4881734;29;20054;-81
2021/11/04 11:24:32;;;;;;;70.30;46.80;;;10.50;93.30;;;;;;4881864;29;20041;-80
2021/11/04 11:27:00;;;;;;;66.00;43.13;;;10.70;93.60;;;;;;4898654;29;20509;-80
2021/11/04 11:29:30;;;;;;;63.80;42.23;;;10.80;93.20;;;;;;4897593;29;20181;-80
2021/11/04 11:31:56;;;;;;;60.90;42.27;;;10.80;93.10;;;;;;4896599;29;20032;-80
2021/11/04 11:34:27;;;;;;;64.30;44.27;;;10.90;92.90;;;;;;4881930;29;20047;-79
2021/11/04 11:37:15;;;;;;;60.27;40.27;;;11.00;92.80;;;;;;4896872;29;20085;-80
2021/11/04 11:39:47;;;;;;;69.97;43.83;;;11.10;92.70;;;;;;4897110;29;20135;-81
2021/11/04 11:42:18;;;;;;;59.20;39.95;;;11.20;92.50;;;;;;4897100;29;20045;-81
2021/11/04 11:45:01;;;;;;;60.90;39.17;;;11.20;92.10;;;;;;4897106;29;20028;-81
2021/11/04 11:47:33;;;;;;;61.08;43.08;;;11.20;92.10;;;;;;4897564;29;20032;-80
2021/11/04 11:50:31;;;;;;;55.70;38.60;;;11.30;92.10;;;;;;4896674;29;20485;-80
2021/11/04 11:53:05;;;;;;;60.03;39.77;;;11.30;92.00;;;;;;4889209;29;20061;-80
2021/11/04 11:55:41;;;;;;;81.50;46.93;;;11.40;91.90;;;;;;4897806;29;20461;-79
2021/11/04 11:58:23;;;;;;;87.10;51.73;;;11.40;92.00;;;;;;4896905;29;20422;-79
2021/11/04 12:00:57;;;;;;;81.13;48.75;;;11.30;92.00;;;;;;4896610;29;20033;-79
2021/11/04 12:03:32;;;;;;;75.37;47.33;;;11.40;92.00;;;;;;4881599;29;20049;-79
2021/11/04 12:06:24;;;;;;;71.80;47.40;;;11.30;91.80;;;;;;4896554;29;20135;-78
2021/11/04 12:08:50;;;;;;;74.77;49.40;;;11.30;91.90;;;;;;4895500;29;20041;-78
2021/11/04 12:11:34;;;;;;;72.20;46.23;;;11.20;92.10;;;;;;4897696;29;20076;-78
2021/11/04 12:14:24;;;;;;;75.23;50.83;;;11.20;92.00;;;;;;4897525;29;20470;-78
2021/11/04 12:17:08;;;;;;;70.50;48.37;;;11.20;92.20;;;;;;4890382;29;20135;-78
2021/11/04 12:19:45;;;;;;;73.87;49.27;;;11.20;92.30;;;;;;4897321;29;20040;-78
2021/11/04 12:22:32;;;;;;;71.67;49.77;;;11.20;92.50;;;;;;4897828;29;20123;-78
2021/11/04 12:24:59;;;;;;;72.97;49.23;;;11.30;92.60;;;;;;4896316;29;20036;-78
2021/11/04 12:27:29;;;;;;;64.47;46.90;;;11.30;92.60;;;;;;4896263;29;20037;-78
2021/11/04 12:29:56;;;;;;;64.93;46.93;;;11.30;92.70;;;;;;4896299;29;20097;-78
2021/11/04 12:32:24;;;;;;;62.80;46.23;;;11.40;92.60;;;;;;4896125;29;20044;-78
2021/11/04 12:35:04;;;;;;;62.87;45.20;;;11.30;92.70;;;;;;4896452;29;20108;-81
2021/11/04 12:37:33;;;;;;;54.63;40.10;;;11.30;92.70;;;;;;4896744;29;20483;-77
2021/11/04 12:40:01;;;;;;;67.70;48.10;;;11.30;92.70;;;;;;4896116;29;20045;-78